createdAt,value
2022-08-07T00:00:15.440Z,21.12
2022-08-07T00:02:45.786Z,21.06
2022-08-07T00:05:12.869Z,20.91
2022-08-07T00:07:40.919Z,20.71
2022-08-07T00:10:26.580Z,20.87
2022-08-07T00:13:00.320Z,21.05
2022-08-07T00:15:37.967Z,21.00
2022-08-07T00:18:19.378Z,21.04
2022-08-07T00:20:49.528Z,20.93
2022-08-07T00:23:16.967Z,21.41
2022-08-07T00:25:45.764Z,21.43
2022-08-07T00:28:22.012Z,20.99
2022-08-07T00:30:49.021Z,20.78
2022-08-07T00:33:15.894Z,20.76
2022-08-07T00:35:46.492Z,20.94
2022-08-07T00:38:16.637Z,21.00
2022-08-07T00:40:59.075Z,20.87
2022-08-07T00:43:58.970Z,20.90
2022-08-07T00:46:14.443Z,20.86
2022-08-07T00:48:42.244Z,20.82
2022-08-07T00:51:10.249Z,20.61
2022-08-07T00:53:38.970Z,20.65
2022-08-07T00:56:17.547Z,20.84
2022-08-07T00:58:47.176Z,21.23
2022-08-07T01:01:17.011Z,21.24
2022-08-07T01:03:57.201Z,20.61
2022-08-07T01:06:27.737Z,21.20
2022-08-07T01:08:56.263Z,20.94
2022-08-07T01:12:10.184Z,20.64
2022-08-07T01:14:15.544Z,20.79
2022-08-07T01:16:47.239Z,20.25
2022-08-07T01:19:19.197Z,20.79
2022-08-07T01:21:48.398Z,20.45
2022-08-07T01:24:18.701Z,21.07
2022-08-07T01:26:52.227Z,20.96
2022-08-07T01:29:22.606Z,20.60
2022-08-07T01:31:51.826Z,20.84
2022-08-07T01:34:19.653Z,20.99
2022-08-07T01:36:52.760Z,20.74
2022-08-07T01:39:41.101Z,20.60
2022-08-07T01:42:40.074Z,20.29
2022-08-07T01:45:05.350Z,19.96
2022-08-07T01:48:29.296Z,20.40
2022-08-07T01:50:28.937Z,20.02
2022-08-07T01:52:58.380Z,20.01
2022-08-07T01:55:50.808Z,20.39
2022-08-07T01:58:29.654Z,20.55
2022-08-07T02:01:10.360Z,20.39
2022-08-07T02:04:01.846Z,20.48
2022-08-07T02:06:33.436Z,20.17
2022-08-07T02:09:04.655Z,20.18
2022-08-07T02:12:02.877Z,19.96
2022-08-07T02:14:40.395Z,20.13
2022-08-07T02:17:11.238Z,19.91
2022-08-07T02:20:06.941Z,20.49
2022-08-07T02:22:30.448Z,20.24
2022-08-07T02:24:58.114Z,20.11
2022-08-07T02:27:27.575Z,20.05
2022-08-07T02:30:03.897Z,20.62
2022-08-07T02:32:38.689Z,20.28
2022-08-07T02:36:27.081Z,20.55
2022-08-07T02:38:16.255Z,20.68
2022-08-07T02:40:46.596Z,20.45
2022-08-07T02:43:16.245Z,20.40
2022-08-07T02:46:00.434Z,20.87
2022-08-07T02:48:28.713Z,20.32
2022-08-07T02:50:57.387Z,20.32
2022-08-07T02:53:34.096Z,20.67
2022-08-07T02:56:12.897Z,20.36
2022-08-07T02:58:49.754Z,20.12
2022-08-07T03:01:36.701Z,20.09
2022-08-07T03:04:12.824Z,20.36
2022-08-07T03:06:45.794Z,20.50
2022-08-07T03:09:14.014Z,20.01
2022-08-07T03:11:52.515Z,20.52
2022-08-07T03:14:25.484Z,20.42
2022-08-07T03:16:52.630Z,20.77
2022-08-07T03:19:20.456Z,20.93
2022-08-07T03:21:50.916Z,20.14
2022-08-07T03:24:27.214Z,20.28
2022-08-07T03:26:59.602Z,19.68
2022-08-07T03:29:33.726Z,20.48
2022-08-07T03:32:08.440Z,20.42
2022-08-07T03:34:47.369Z,20.84
2022-08-07T03:37:37.427Z,20.74
2022-08-07T03:40:15.950Z,19.99
2022-08-07T03:42:44.217Z,20.13
2022-08-07T03:45:12.125Z,20.06
2022-08-07T03:47:57.944Z,20.11
2022-08-07T03:50:25.533Z,20.42
2022-08-07T03:52:58.734Z,20.25
2022-08-07T03:55:57.342Z,20.32
2022-08-07T03:59:05.487Z,20.15
2022-08-07T04:01:02.057Z,20.32
2022-08-07T04:03:29.263Z,20.60
2022-08-07T04:06:37.296Z,20.76
2022-08-07T04:09:03.765Z,20.99
2022-08-07T04:12:23.692Z,20.60
2022-08-07T04:14:37.814Z,20.62
2022-08-07T04:17:20.455Z,20.31
2022-08-07T04:19:51.161Z,19.95
2022-08-07T04:22:19.975Z,20.71
2022-08-07T04:24:50.654Z,20.68
2022-08-07T04:27:25.163Z,20.22
2022-08-07T04:30:01.075Z,20.69
2022-08-07T04:32:34.717Z,20.66
2022-08-07T04:35:11.216Z,20.57
2022-08-07T04:37:52.783Z,20.33
2022-08-07T04:40:29.543Z,20.37
2022-08-07T04:43:01.650Z,20.49
2022-08-07T04:46:00.945Z,20.56
2022-08-07T04:48:28.553Z,20.06
2022-08-07T04:51:04.514Z,20.48
2022-08-07T04:54:05.759Z,20.11
2022-08-07T04:58:11.333Z,20.25
2022-08-07T05:00:10.858Z,20.30
2022-08-07T05:03:17.218Z,20.33
2022-08-07T05:06:19.355Z,20.19
2022-08-07T05:09:15.906Z,20.22
2022-08-07T05:11:56.914Z,20.35
2022-08-07T05:14:52.508Z,20.38
2022-08-07T05:17:52.232Z,19.96
2022-08-07T05:20:27.043Z,20.16
2022-08-07T05:22:59.865Z,20.47
2022-08-07T05:26:08.854Z,20.36
2022-08-07T05:28:22.854Z,20.55
2022-08-07T05:30:52.638Z,20.64
2022-08-07T05:33:21.456Z,20.68
2022-08-07T05:35:51.611Z,20.68
2022-08-07T05:38:59.955Z,20.64
2022-08-07T05:41:14.309Z,20.97
2022-08-07T05:44:01.255Z,20.83
2022-08-07T05:46:36.727Z,20.43
2022-08-07T05:49:11.781Z,20.11
2022-08-07T05:51:40.601Z,20.46
2022-08-07T05:54:12.473Z,20.67
2022-08-07T05:56:56.275Z,20.42
2022-08-07T05:59:25.392Z,20.95
2022-08-07T06:01:57.469Z,21.22
2022-08-07T06:04:29.883Z,20.86
2022-08-07T06:07:03.793Z,21.21
2022-08-07T06:10:01.847Z,20.59
2022-08-07T06:12:21.148Z,20.89
2022-08-07T06:14:58.789Z,20.95
2022-08-07T06:17:37.525Z,20.80
2022-08-07T06:20:06.672Z,20.83
2022-08-07T06:22:50.652Z,20.75
2022-08-07T06:25:34.837Z,21.29
2022-08-07T06:28:06.010Z,21.25
2022-08-07T06:30:37.305Z,21.36
2022-08-07T06:33:15.731Z,21.81
2022-08-07T06:35:47.809Z,22.06
2022-08-07T06:38:30.479Z,22.71
2022-08-07T06:41:00.729Z,22.87
2022-08-07T06:43:39.244Z,23.27
2022-08-07T06:46:11.594Z,23.01
2022-08-07T06:48:42.166Z,23.05
2022-08-07T06:51:31.152Z,23.24
2022-08-07T06:55:27.735Z,23.38
2022-08-07T06:56:51.866Z,23.33
2022-08-07T07:00:12.198Z,23.57
2022-08-07T07:02:49.115Z,23.22
2022-08-07T07:05:15.105Z,23.40
2022-08-07T07:08:06.983Z,23.73
2022-08-07T07:10:36.655Z,23.83
2022-08-07T07:13:40.565Z,23.89
2022-08-07T07:16:09.985Z,24.25
2022-08-07T07:18:49.093Z,25.01
2022-08-07T07:21:20.597Z,24.24
2022-08-07T07:24:08.316Z,24.61
2022-08-07T07:26:37.893Z,24.84
2022-08-07T07:29:39.780Z,24.57
2022-08-07T07:32:09.534Z,24.87
2022-08-07T07:34:41.103Z,24.57
2022-08-07T07:37:22.081Z,24.62
2022-08-07T07:40:01.972Z,25.00
2022-08-07T07:42:33.293Z,24.75
2022-08-07T07:45:02.831Z,24.68
2022-08-07T07:47:30.524Z,25.42
2022-08-07T07:50:36.105Z,24.97
2022-08-07T07:53:13.702Z,24.57
2022-08-07T07:56:00.863Z,24.76
2022-08-07T07:58:40.644Z,25.18
2022-08-07T08:02:03.206Z,25.55
2022-08-07T08:04:10.640Z,25.11
2022-08-07T08:06:50.761Z,25.85
2022-08-07T08:09:22.743Z,25.61
2022-08-07T08:12:02.733Z,25.49
2022-08-07T08:14:36.386Z,25.52
2022-08-07T08:17:56.211Z,26.01
2022-08-07T08:20:17.570Z,25.67
2022-08-07T08:23:08.198Z,25.42
2022-08-07T08:25:56.217Z,26.07
2022-08-07T08:28:38.232Z,25.86
2022-08-07T08:31:16.451Z,25.93
2022-08-07T08:33:55.785Z,25.80
2022-08-07T08:36:29.706Z,25.86
2022-08-07T08:39:01.664Z,26.23
2022-08-07T08:41:57.147Z,26.65
2022-08-07T08:44:36.305Z,26.73
2022-08-07T08:47:29.012Z,26.33
2022-08-07T08:50:10.882Z,26.93
2022-08-07T08:53:03.714Z,26.63
2022-08-07T08:55:58.810Z,27.27
2022-08-07T08:58:54.620Z,27.28
2022-08-07T09:01:40.180Z,27.06
2022-08-07T09:04:13.923Z,27.82
2022-08-07T09:07:06.326Z,28.36
2022-08-07T09:09:47.480Z,28.33
2022-08-07T09:12:38.574Z,28.56
2022-08-07T09:16:20.494Z,29.04
2022-08-07T09:18:15.705Z,29.18
2022-08-07T09:21:00.787Z,29.13
2022-08-07T09:24:35.123Z,29.34
2022-08-07T09:27:16.395Z,30.02
2022-08-07T09:30:03.416Z,29.37
2022-08-07T09:32:37.463Z,30.34
2022-08-07T09:36:03.506Z,30.87
2022-08-07T09:38:37.015Z,31.14
2022-08-07T09:42:03.185Z,30.75
2022-08-07T09:46:28.773Z,30.66
2022-08-07T09:48:02.957Z,31.77
2022-08-07T09:50:54.685Z,30.41
2022-08-07T09:53:24.775Z,29.93
2022-08-07T09:56:39.297Z,30.12
2022-08-07T09:59:14.959Z,29.47
2022-08-07T10:02:08.887Z,30.46
2022-08-07T10:04:46.058Z,30.91
2022-08-07T10:07:53.321Z,31.63
2022-08-07T10:11:07.778Z,30.05
2022-08-07T10:14:01.377Z,30.78
2022-08-07T10:16:34.526Z,31.27
2022-08-07T10:19:14.029Z,31.07
2022-08-07T10:22:12.482Z,30.31
2022-08-07T10:24:59.596Z,30.72
2022-08-07T10:28:14.286Z,31.04
2022-08-07T10:31:18.674Z,31.71
2022-08-07T10:34:32.007Z,30.23
2022-08-07T10:37:22.300Z,30.72
2022-08-07T10:40:39.087Z,31.16
2022-08-07T10:43:29.835Z,31.78
2022-08-07T10:46:09.556Z,31.10
2022-08-07T10:49:10.322Z,31.08
2022-08-07T10:52:13.625Z,31.48
2022-08-07T10:55:00.945Z,32.47
2022-08-07T10:57:56.018Z,31.68
2022-08-07T11:00:39.751Z,31.82
2022-08-07T11:03:37.184Z,32.20
2022-08-07T11:06:26.949Z,31.88
2022-08-07T11:09:11.498Z,31.93
2022-08-07T11:11:59.359Z,32.92
2022-08-07T11:14:45.852Z,32.01
2022-08-07T11:17:43.274Z,31.61
2022-08-07T11:20:24.359Z,31.18
2022-08-07T11:23:09.302Z,31.53
2022-08-07T11:25:50.049Z,32.49
2022-08-07T11:28:37.057Z,31.31
2022-08-07T11:31:34.954Z,32.17
2022-08-07T11:34:16.491Z,33.08
2022-08-07T11:37:11.648Z,32.87
2022-08-07T11:40:03.750Z,34.08
2022-08-07T11:42:54.614Z,33.50
2022-08-07T11:45:23.703Z,34.45
2022-08-07T11:48:05.992Z,33.83
2022-08-07T11:51:00.234Z,32.22
2022-08-07T11:54:01.587Z,33.81
2022-08-07T11:56:56.234Z,33.90
2022-08-07T12:00:10.213Z,34.59
2022-08-07T12:03:42.252Z,34.16
2022-08-07T12:06:40.328Z,32.88
2022-08-07T12:09:37.997Z,33.47
2022-08-07T12:12:09.306Z,31.88
2022-08-07T12:15:03.453Z,33.50
2022-08-07T12:17:40.575Z,34.48
2022-08-07T12:20:49.354Z,34.64
2022-08-07T12:24:06.249Z,34.61
2022-08-07T12:26:29.792Z,33.99
2022-08-07T12:29:03.734Z,34.62
2022-08-07T12:32:01.574Z,35.35
2022-08-07T12:34:31.423Z,35.34
2022-08-07T12:36:59.913Z,34.65
2022-08-07T12:39:44.087Z,34.07
2022-08-07T12:42:27.897Z,33.24
2022-08-07T12:44:58.905Z,34.07
2022-08-07T12:47:39.822Z,33.46
2022-08-07T12:50:38.061Z,33.12
2022-08-07T12:53:28.674Z,34.25
2022-08-07T12:56:40.311Z,34.57
2022-08-07T12:59:08.698Z,33.38
2022-08-07T13:02:33.253Z,33.10
2022-08-07T13:06:04.477Z,33.77
2022-08-07T13:08:29.573Z,33.69
2022-08-07T13:11:16.406Z,33.54
2022-08-07T13:13:57.295Z,34.21
2022-08-07T13:16:27.245Z,34.16
2022-08-07T13:19:35.258Z,33.27
2022-08-07T13:22:32.296Z,32.90
2022-08-07T13:25:24.243Z,33.06
2022-08-07T13:28:11.141Z,32.25
2022-08-07T13:30:48.958Z,32.53
2022-08-07T13:34:30.927Z,32.37
2022-08-07T13:36:50.106Z,33.03
2022-08-07T13:40:32.779Z,33.80
2022-08-07T13:42:24.980Z,33.96
2022-08-07T13:44:57.650Z,34.88
2022-08-07T13:48:06.345Z,34.33
2022-08-07T13:50:34.722Z,33.63
2022-08-07T13:53:05.437Z,34.23
2022-08-07T13:55:34.129Z,34.54
2022-08-07T13:58:56.427Z,34.55
2022-08-07T14:01:26.503Z,34.25
2022-08-07T14:04:05.421Z,33.90
2022-08-07T14:06:40.715Z,33.88
2022-08-07T14:09:17.275Z,34.16
2022-08-07T14:12:10.298Z,33.19
2022-08-07T14:14:43.984Z,33.76
2022-08-07T14:18:12.370Z,34.06
2022-08-07T14:20:42.482Z,33.34
2022-08-07T14:23:14.794Z,33.72
2022-08-07T14:26:05.664Z,32.41
2022-08-07T14:28:55.666Z,32.81
2022-08-07T14:31:43.431Z,33.28
2022-08-07T14:34:19.950Z,32.46
2022-08-07T14:36:56.072Z,31.49
2022-08-07T14:40:16.977Z,32.21
2022-08-07T14:42:18.466Z,31.84
2022-08-07T14:44:59.711Z,31.28
2022-08-07T14:47:33.832Z,31.73
2022-08-07T14:50:07.148Z,32.26
2022-08-07T14:52:39.465Z,31.50
2022-08-07T14:55:12.424Z,31.60
2022-08-07T14:57:57.934Z,32.15
2022-08-07T15:00:31.271Z,32.42
2022-08-07T15:03:19.089Z,32.12
2022-08-07T15:05:54.729Z,32.41
2022-08-07T15:11:52.844Z,32.91
2022-08-07T15:14:30.591Z,33.04
2022-08-07T15:17:04.875Z,32.82
2022-08-07T15:22:33.488Z,31.60
2022-08-07T15:25:18.260Z,31.92
2022-08-07T15:31:04.992Z,31.27
2022-08-07T15:33:33.452Z,31.17
2022-08-07T15:36:05.248Z,31.48
2022-08-07T15:38:58.729Z,30.42
2022-08-07T15:42:46.849Z,31.00
2022-08-07T15:44:20.936Z,31.40
2022-08-07T15:46:58.916Z,31.15
2022-08-07T15:52:30.525Z,31.47
2022-08-07T15:55:02.732Z,31.32
2022-08-07T15:57:40.270Z,30.85
2022-08-07T16:00:31.296Z,30.55
2022-08-07T16:03:21.887Z,30.47
2022-08-07T16:06:05.896Z,30.25
2022-08-07T16:08:38.225Z,30.24
2022-08-07T16:11:26.915Z,30.98
2022-08-07T16:14:06.375Z,30.64
2022-08-07T16:16:57.287Z,29.71
2022-08-07T16:19:58.647Z,30.04
2022-08-07T16:22:56.631Z,30.22
2022-08-07T16:26:01.474Z,29.67
2022-08-07T16:30:07.582Z,29.36
2022-08-07T16:31:51.688Z,29.36
2022-08-07T16:34:42.085Z,29.53
2022-08-07T16:38:06.805Z,29.68
2022-08-07T16:41:04.244Z,29.51
2022-08-07T16:44:53.687Z,28.90
2022-08-07T16:47:12.065Z,29.76
2022-08-07T16:50:20.855Z,29.16
2022-08-07T16:52:55.852Z,29.58
2022-08-07T16:55:47.088Z,29.68
2022-08-07T16:58:30.169Z,29.33
2022-08-07T17:01:15.956Z,29.50
2022-08-07T17:04:00.412Z,29.13
2022-08-07T17:07:02.811Z,29.06
2022-08-07T17:10:07.008Z,29.23
2022-08-07T17:12:53.219Z,29.04
2022-08-07T17:15:50.742Z,28.81
2022-08-07T17:18:30.174Z,29.08
2022-08-07T17:20:58.942Z,29.28
2022-08-07T17:23:32.577Z,28.62
2022-08-07T17:26:31.316Z,28.58
2022-08-07T17:30:12.715Z,28.73
2022-08-07T17:32:30.371Z,28.84
2022-08-07T17:35:51.396Z,28.69
2022-08-07T17:38:33.455Z,28.39
2022-08-07T17:42:02.968Z,28.03
2022-08-07T17:44:41.598Z,28.00
2022-08-07T17:47:16.831Z,27.85
2022-08-07T17:50:01.215Z,27.93
2022-08-07T17:52:35.234Z,28.16
2022-08-07T17:55:55.875Z,28.05
2022-08-07T17:58:13.823Z,28.01
2022-08-07T18:00:59.835Z,27.75
2022-08-07T18:04:07.031Z,27.87
2022-08-07T18:06:39.044Z,27.82
2022-08-07T18:09:16.100Z,27.37
2022-08-07T18:12:17.962Z,27.14
2022-08-07T18:14:46.465Z,27.30
2022-08-07T18:18:44.853Z,27.70
2022-08-07T18:21:12.716Z,27.58
2022-08-07T18:23:43.384Z,27.67
2022-08-07T18:26:20.187Z,27.54
2022-08-07T18:30:06.734Z,27.68
2022-08-07T18:33:10.602Z,27.18
2022-08-07T18:35:50.270Z,26.95
2022-08-07T18:38:55.628Z,27.50
2022-08-07T18:41:53.290Z,27.26
2022-08-07T18:45:39.943Z,27.13
2022-08-07T18:48:01.135Z,27.03
2022-08-07T18:50:47.102Z,26.87
2022-08-07T18:53:39.323Z,26.48
2022-08-07T18:56:35.661Z,26.23
2022-08-07T18:59:46.943Z,26.80
2022-08-07T19:02:59.162Z,26.61
2022-08-07T19:06:03.693Z,26.31
2022-08-07T19:08:34.303Z,26.72
2022-08-07T19:11:35.654Z,26.61
2022-08-07T19:14:22.494Z,26.69
2022-08-07T19:17:04.733Z,26.41
2022-08-07T19:19:37.879Z,26.64
2022-08-07T19:22:31.984Z,26.71
2022-08-07T19:25:06.256Z,26.56
2022-08-07T19:28:57.868Z,26.35
2022-08-07T19:30:59.992Z,26.20
2022-08-07T19:33:16.187Z,26.54
2022-08-07T19:35:51.973Z,26.64
2022-08-07T19:38:20.571Z,26.42
2022-08-07T19:40:52.041Z,26.67
2022-08-07T19:43:45.704Z,26.74
2022-08-07T19:46:12.181Z,26.38
2022-08-07T19:48:53.938Z,26.58
2022-08-07T19:51:50.873Z,26.43
2022-08-07T19:54:31.100Z,26.11
2022-08-07T19:58:00.974Z,25.79
2022-08-07T19:59:54.584Z,25.91
2022-08-07T20:02:39.006Z,26.17
2022-08-07T20:05:10.025Z,26.26
2022-08-07T20:07:47.320Z,25.62
2022-08-07T20:10:37.041Z,26.23
2022-08-07T20:13:15.763Z,25.65
2022-08-07T20:15:54.049Z,25.32
2022-08-07T20:18:32.927Z,25.33
2022-08-07T20:21:03.146Z,25.86
2022-08-07T20:23:42.974Z,25.82
2022-08-07T20:26:15.305Z,25.41
2022-08-07T20:28:59.830Z,25.26
2022-08-07T20:31:29.101Z,25.87
2022-08-07T20:34:01.013Z,25.62
2022-08-07T20:36:30.435Z,25.60
2022-08-07T20:39:00.460Z,25.45
2022-08-07T20:41:40.695Z,25.53
2022-08-07T20:44:10.470Z,25.45
2022-08-07T20:46:43.714Z,24.99
2022-08-07T20:50:01.030Z,25.20
2022-08-07T20:52:07.838Z,25.24
2022-08-07T20:54:53.695Z,24.98
2022-08-07T20:57:36.581Z,25.02
2022-08-07T21:00:09.386Z,25.00
2022-08-07T21:02:58.113Z,24.28
2022-08-07T21:05:56.142Z,24.61
2022-08-07T21:08:38.122Z,24.84
2022-08-07T21:11:10.890Z,24.10
2022-08-07T21:13:56.991Z,24.27
2022-08-07T21:16:33.664Z,24.31
2022-08-07T21:19:01.545Z,23.99
2022-08-07T21:21:33.199Z,24.25
2022-08-07T21:24:49.455Z,24.03
2022-08-07T21:27:25.631Z,24.00
2022-08-07T21:30:08.984Z,24.03
2022-08-07T21:32:48.811Z,24.02
2022-08-07T21:35:34.817Z,24.15
2022-08-07T21:38:30.406Z,24.26
2022-08-07T21:41:10.862Z,24.02
2022-08-07T21:44:28.469Z,23.76
2022-08-07T21:47:34.694Z,24.02
2022-08-07T21:50:14.755Z,23.70
2022-08-07T21:53:18.517Z,23.86
2022-08-07T21:55:52.106Z,23.80
2022-08-07T21:58:32.917Z,23.60
2022-08-07T22:01:13.743Z,23.68
2022-08-07T22:03:46.695Z,23.40
2022-08-07T22:06:52.747Z,23.81
2022-08-07T22:09:25.786Z,23.38
2022-08-07T22:12:05.544Z,23.70
2022-08-07T22:16:42.806Z,23.39
2022-08-07T22:18:02.005Z,23.66
2022-08-07T22:20:49.256Z,22.99
2022-08-07T22:23:40.238Z,22.68
2022-08-07T22:26:19.115Z,22.87
2022-08-07T22:28:53.175Z,22.96
2022-08-07T22:32:03.348Z,23.29
2022-08-07T22:34:53.752Z,23.11
2022-08-07T22:38:04.459Z,23.27
2022-08-07T22:40:42.575Z,22.97
2022-08-07T22:43:13.837Z,23.95
2022-08-07T22:46:46.898Z,24.03
2022-08-07T22:49:37.788Z,24.07
2022-08-07T22:52:45.930Z,23.68
2022-08-07T22:55:46.587Z,23.04
2022-08-07T22:58:47.444Z,23.05
2022-08-07T23:01:26.245Z,23.38
2022-08-07T23:04:01.895Z,23.03
2022-08-07T23:06:55.237Z,23.23
2022-08-07T23:10:06.250Z,23.12
2022-08-07T23:12:35.016Z,23.11
2022-08-07T23:16:06.133Z,23.04
2022-08-07T23:19:13.698Z,23.41
2022-08-07T23:21:59.416Z,23.61
2022-08-07T23:24:45.386Z,23.05
2022-08-07T23:27:18.665Z,23.08
2022-08-07T23:30:39.591Z,22.61
2022-08-07T23:34:36.141Z,22.60
2022-08-07T23:36:36.754Z,23.15
2022-08-07T23:39:36.007Z,23.10
2022-08-07T23:42:08.184Z,23.54
2022-08-07T23:44:52.394Z,23.25
2022-08-07T23:47:46.465Z,22.97
2022-08-07T23:50:28.797Z,22.80
2022-08-07T23:53:16.613Z,22.95
2022-08-07T23:56:02.221Z,23.21
2022-08-07T23:58:43.865Z,22.42
